createdAt,value
2022-08-26T00:02:00.435Z,25.70
2022-08-26T00:04:30.328Z,25.70
2022-08-26T00:06:58.515Z,25.60
2022-08-26T00:09:27.107Z,25.70
2022-08-26T00:11:55.462Z,25.70
2022-08-26T00:14:30.769Z,25.60
2022-08-26T00:16:59.534Z,25.60
2022-08-26T00:19:29.105Z,25.60
2022-08-26T00:21:57.217Z,25.60
2022-08-26T00:24:25.507Z,25.50
2022-08-26T00:26:53.862Z,25.50
2022-08-26T00:29:22.342Z,25.50
2022-08-26T00:31:50.578Z,25.50
2022-08-26T00:34:19.371Z,25.40
2022-08-26T00:36:52.034Z,25.40
2022-08-26T00:39:21.015Z,25.20
2022-08-26T00:41:50.480Z,25.20
2022-08-26T00:44:19.523Z,25.20
2022-08-26T00:46:52.273Z,25.00
2022-08-26T00:49:29.503Z,25.00
2022-08-26T00:52:04.184Z,25.00
2022-08-26T00:54:40.180Z,25.00
2022-08-26T00:57:16.720Z,24.90
2022-08-26T00:59:48.203Z,24.80
2022-08-26T01:02:21.218Z,24.80
2022-08-26T01:04:55.458Z,24.80
2022-08-26T01:07:27.370Z,24.70
2022-08-26T01:09:56.250Z,24.60
2022-08-26T01:12:25.885Z,24.60
2022-08-26T01:14:54.229Z,24.60
2022-08-26T01:17:22.663Z,24.50
2022-08-26T01:19:53.838Z,24.60
2022-08-26T01:22:28.740Z,24.40
2022-08-26T01:24:59.588Z,24.40
2022-08-26T01:27:32.742Z,24.40
2022-08-26T01:30:03.328Z,24.40
2022-08-26T01:32:34.118Z,24.40
2022-08-26T01:35:03.169Z,24.30
2022-08-26T01:37:40.301Z,24.30
2022-08-26T01:40:17.615Z,24.30
2022-08-26T01:42:46.767Z,24.30
2022-08-26T01:45:19.449Z,24.40
2022-08-26T01:47:49.682Z,24.40
2022-08-26T01:50:30.114Z,24.30
2022-08-26T01:53:01.977Z,24.30
2022-08-26T01:55:34.158Z,24.30
2022-08-26T01:58:05.780Z,24.20
2022-08-26T02:00:35.193Z,24.20
2022-08-26T02:03:22.122Z,24.10
2022-08-26T02:05:54.374Z,24.10
2022-08-26T02:08:27.180Z,24.00
2022-08-26T02:10:56.737Z,24.00
2022-08-26T02:13:30.109Z,24.00
2022-08-26T02:16:00.726Z,24.00
2022-08-26T02:18:30.959Z,24.00
2022-08-26T02:20:59.120Z,24.00
2022-08-26T02:23:27.366Z,24.00
2022-08-26T02:26:06.524Z,24.00
2022-08-26T02:28:39.856Z,23.90
2022-08-26T02:31:08.475Z,23.90
2022-08-26T02:33:38.141Z,23.90
2022-08-26T02:36:12.172Z,23.90
2022-08-26T02:38:43.169Z,23.90
2022-08-26T02:41:12.661Z,23.90
2022-08-26T02:43:40.841Z,23.80
2022-08-26T02:46:08.967Z,23.80
2022-08-26T02:48:37.070Z,23.70
2022-08-26T02:51:05.355Z,23.70
2022-08-26T02:53:35.683Z,23.70
2022-08-26T02:56:04.656Z,23.60
2022-08-26T02:58:34.222Z,23.60
2022-08-26T03:01:02.764Z,23.60
2022-08-26T03:03:33.653Z,23.60
2022-08-26T03:06:02.087Z,23.50
2022-08-26T03:08:30.424Z,23.50
2022-08-26T03:10:59.215Z,23.50
2022-08-26T03:13:29.925Z,23.40
2022-08-26T03:16:01.403Z,23.40
2022-08-26T03:18:29.694Z,23.30
2022-08-26T03:20:58.483Z,23.40
2022-08-26T03:23:26.611Z,23.40
2022-08-26T03:25:55.101Z,23.30
2022-08-26T03:28:24.231Z,23.40
2022-08-26T03:30:54.543Z,23.40
2022-08-26T03:33:24.867Z,23.40
2022-08-26T03:35:53.816Z,23.40
2022-08-26T03:38:25.016Z,23.30
2022-08-26T03:40:53.142Z,23.30
2022-08-26T03:43:22.385Z,23.30
2022-08-26T03:45:51.303Z,23.30
2022-08-26T03:48:20.568Z,23.30
2022-08-26T03:50:49.967Z,23.40
2022-08-26T03:53:20.577Z,23.40
2022-08-26T03:55:51.812Z,23.50
2022-08-26T03:58:20.881Z,23.50
2022-08-26T04:00:49.413Z,23.50
2022-08-26T04:03:37.697Z,23.50
2022-08-26T04:06:08.077Z,23.50
2022-08-26T04:08:37.859Z,23.50
2022-08-26T04:11:07.098Z,23.50
2022-08-26T04:13:35.670Z,23.40
2022-08-26T04:16:04.095Z,23.40
2022-08-26T04:18:33.212Z,23.50
2022-08-26T04:21:08.014Z,23.40
2022-08-26T04:23:47.792Z,23.50
2022-08-26T04:26:16.691Z,23.50
2022-08-26T04:28:44.774Z,23.50
2022-08-26T04:31:14.558Z,23.40
2022-08-26T04:33:43.018Z,23.40
2022-08-26T04:36:12.970Z,23.50
2022-08-26T04:38:41.055Z,23.40
2022-08-26T04:41:15.505Z,23.40
2022-08-26T04:43:46.383Z,23.30
2022-08-26T04:46:17.430Z,23.30
2022-08-26T04:48:47.878Z,23.30
2022-08-26T04:51:17.559Z,23.30
2022-08-26T04:53:46.101Z,23.30
2022-08-26T04:56:15.473Z,23.30
2022-08-26T04:58:43.570Z,23.30
2022-08-26T05:01:11.761Z,23.40
2022-08-26T05:03:39.832Z,23.30
2022-08-26T05:06:09.757Z,23.30
2022-08-26T05:08:39.657Z,23.30
2022-08-26T05:11:10.207Z,23.30
2022-08-26T05:13:38.938Z,23.30
2022-08-26T05:16:09.739Z,23.30
2022-08-26T05:18:41.177Z,23.30
2022-08-26T05:21:18.235Z,23.30
2022-08-26T05:23:48.281Z,23.30
2022-08-26T05:26:18.084Z,23.40
2022-08-26T05:28:51.377Z,23.50
2022-08-26T05:31:24.960Z,23.50
2022-08-26T05:33:53.639Z,23.40
2022-08-26T05:36:24.686Z,23.50
2022-08-26T05:38:57.748Z,23.50
2022-08-26T05:41:34.398Z,23.50
2022-08-26T05:44:06.801Z,23.50
2022-08-26T05:46:35.331Z,23.50
2022-08-26T05:49:04.860Z,23.50
2022-08-26T05:51:34.272Z,23.50
2022-08-26T05:54:06.829Z,23.50
2022-08-26T05:56:35.003Z,23.50
2022-08-26T05:59:04.038Z,23.40
2022-08-26T06:01:35.685Z,23.50
2022-08-26T06:04:04.614Z,23.50
2022-08-26T06:06:34.637Z,23.40
2022-08-26T06:09:07.126Z,23.30
2022-08-26T06:11:39.166Z,23.30
2022-08-26T06:14:08.771Z,23.20
2022-08-26T06:16:40.777Z,23.20
2022-08-26T06:19:11.471Z,23.20
2022-08-26T06:21:41.390Z,23.10
2022-08-26T06:24:31.238Z,23.10
2022-08-26T06:27:02.154Z,23.00
2022-08-26T06:29:33.050Z,23.20
2022-08-26T06:32:01.910Z,23.30
2022-08-26T06:34:30.963Z,23.30
2022-08-26T06:37:02.379Z,23.30
2022-08-26T06:39:32.396Z,23.20
2022-08-26T06:42:00.669Z,23.00
2022-08-26T06:44:28.946Z,22.90
2022-08-26T06:46:57.212Z,22.90
2022-08-26T06:49:25.718Z,22.90
2022-08-26T06:51:58.136Z,22.80
2022-08-26T06:54:26.655Z,22.80
2022-08-26T06:56:57.437Z,22.80
2022-08-26T06:59:25.950Z,22.90
2022-08-26T07:01:54.603Z,22.90
2022-08-26T07:04:24.590Z,22.90
2022-08-26T07:06:53.938Z,22.90
2022-08-26T07:09:23.143Z,23.00
2022-08-26T07:11:52.482Z,23.00
2022-08-26T07:14:22.081Z,23.10
2022-08-26T07:16:50.913Z,23.10
2022-08-26T07:19:29.031Z,23.10
2022-08-26T07:22:01.747Z,23.10
2022-08-26T07:24:31.056Z,23.10
2022-08-26T07:27:01.100Z,23.10
2022-08-26T07:29:30.796Z,23.10
2022-08-26T07:31:59.621Z,23.10
2022-08-26T07:34:28.022Z,23.20
2022-08-26T07:36:56.911Z,23.20
2022-08-26T07:39:26.106Z,23.20
2022-08-26T07:41:55.302Z,23.20
2022-08-26T07:44:24.346Z,23.10
2022-08-26T07:46:54.477Z,23.10
2022-08-26T07:49:23.291Z,23.10
2022-08-26T07:51:52.198Z,23.10
2022-08-26T07:54:20.692Z,23.10
2022-08-26T07:56:55.940Z,23.10
2022-08-26T07:59:24.966Z,23.10
2022-08-26T08:01:56.550Z,23.10
2022-08-26T08:04:26.615Z,23.20
2022-08-26T08:06:55.946Z,23.20
2022-08-26T08:09:24.709Z,23.30
2022-08-26T08:11:53.890Z,23.30
2022-08-26T08:14:22.437Z,23.30
2022-08-26T08:16:54.587Z,23.10
2022-08-26T08:19:29.858Z,23.10
2022-08-26T08:22:11.360Z,23.10
2022-08-26T08:24:49.982Z,23.10
2022-08-26T08:27:23.867Z,23.10
2022-08-26T08:29:54.333Z,23.00
2022-08-26T08:32:23.427Z,23.00
2022-08-26T08:34:52.905Z,23.00
2022-08-26T08:37:21.008Z,23.00
2022-08-26T08:39:49.574Z,22.90
2022-08-26T08:42:45.610Z,22.90
2022-08-26T08:45:21.257Z,22.90
2022-08-26T08:47:54.604Z,22.90
2022-08-26T08:50:29.178Z,22.90
2022-08-26T08:53:10.741Z,22.90
2022-08-26T08:55:54.362Z,22.90
2022-08-26T08:58:28.351Z,22.90
2022-08-26T09:01:02.977Z,22.90
2022-08-26T09:03:46.806Z,22.90
2022-08-26T09:06:20.560Z,23.00
2022-08-26T09:08:50.536Z,23.00
2022-08-26T09:11:20.885Z,23.00
2022-08-26T09:13:51.568Z,23.00
2022-08-26T09:16:25.110Z,23.10
2022-08-26T09:19:15.705Z,23.10
2022-08-26T09:22:06.986Z,23.00
2022-08-26T09:24:42.042Z,23.00
2022-08-26T09:27:38.371Z,23.00
2022-08-26T09:30:08.073Z,22.90
2022-08-26T09:32:39.978Z,23.00
2022-08-26T09:35:11.549Z,23.00
2022-08-26T09:37:59.507Z,23.00
2022-08-26T09:40:35.034Z,23.10
2022-08-26T09:43:15.704Z,23.10
2022-08-26T09:45:50.767Z,23.20
2022-08-26T09:48:30.293Z,23.10
2022-08-26T09:51:01.743Z,23.00
2022-08-26T09:53:33.781Z,23.00
2022-08-26T09:56:18.112Z,23.10
2022-08-26T09:58:48.255Z,23.10
2022-08-26T10:01:25.684Z,23.10
2022-08-26T10:03:54.150Z,23.10
2022-08-26T10:06:26.727Z,23.10
2022-08-26T10:09:00.178Z,23.00
2022-08-26T10:11:43.286Z,23.10
2022-08-26T10:14:17.059Z,23.10
2022-08-26T10:16:50.340Z,23.20
2022-08-26T10:19:21.654Z,23.10
2022-08-26T10:21:56.100Z,23.20
2022-08-26T10:24:32.533Z,23.30
2022-08-26T10:27:07.053Z,23.10
2022-08-26T10:29:43.496Z,23.10
2022-08-26T10:32:18.197Z,23.20
2022-08-26T10:34:46.781Z,23.10
2022-08-26T10:37:19.353Z,23.20
2022-08-26T10:39:57.096Z,23.20
2022-08-26T10:42:33.129Z,23.30
2022-08-26T10:45:11.841Z,23.30
2022-08-26T10:47:46.823Z,23.30
2022-08-26T10:50:18.008Z,23.20
2022-08-26T10:53:01.736Z,23.20
2022-08-26T10:55:38.270Z,23.30
2022-08-26T10:58:35.359Z,23.30
2022-08-26T11:01:29.136Z,23.40
2022-08-26T11:04:06.372Z,23.50
2022-08-26T11:06:36.958Z,23.40
2022-08-26T11:09:07.434Z,23.40
2022-08-26T11:11:52.254Z,23.40
2022-08-26T11:14:53.064Z,23.60
2022-08-26T11:17:56.601Z,23.60
2022-08-26T11:20:37.405Z,23.60
2022-08-26T11:23:39.162Z,23.70
2022-08-26T11:26:36.183Z,23.70
2022-08-26T11:29:13.174Z,23.70
2022-08-26T11:31:56.232Z,23.80
2022-08-26T11:34:52.383Z,23.70
2022-08-26T11:37:21.471Z,23.70
2022-08-26T11:39:56.897Z,23.80
2022-08-26T11:42:34.323Z,23.90
2022-08-26T11:45:13.306Z,24.00
2022-08-26T11:47:42.089Z,24.10
2022-08-26T11:50:14.478Z,24.10
2022-08-26T11:52:51.307Z,24.10
2022-08-26T11:55:20.091Z,24.10
2022-08-26T11:57:54.001Z,24.00
2022-08-26T12:00:25.372Z,24.00
2022-08-26T12:02:55.554Z,24.00
2022-08-26T12:05:27.204Z,24.10
2022-08-26T12:08:03.102Z,24.10
2022-08-26T12:10:33.791Z,24.20
2022-08-26T12:13:03.769Z,24.30
2022-08-26T12:15:34.932Z,24.30
2022-08-26T12:18:29.059Z,24.40
2022-08-26T12:21:01.073Z,24.60
2022-08-26T12:23:41.832Z,24.70
2022-08-26T12:26:19.503Z,24.70
2022-08-26T12:28:50.642Z,24.60
2022-08-26T12:31:29.563Z,24.50
2022-08-26T12:34:00.210Z,24.50
2022-08-26T12:36:31.957Z,24.40
2022-08-26T12:39:11.665Z,24.40
2022-08-26T12:41:46.656Z,24.30
2022-08-26T12:44:53.099Z,24.30
2022-08-26T12:47:41.888Z,24.30
2022-08-26T12:50:17.215Z,24.20
2022-08-26T12:52:55.100Z,24.20
2022-08-26T12:55:25.725Z,24.20
2022-08-26T12:58:12.715Z,24.10
2022-08-26T13:00:42.328Z,24.10
2022-08-26T13:03:37.630Z,24.10
2022-08-26T13:06:15.693Z,24.10
2022-08-26T13:09:24.716Z,24.10
2022-08-26T13:12:02.428Z,24.20
2022-08-26T13:14:31.095Z,24.20
2022-08-26T13:16:59.272Z,24.20
2022-08-26T13:19:29.525Z,24.20
2022-08-26T13:21:59.891Z,24.20
2022-08-26T13:24:33.769Z,24.30
2022-08-26T13:27:03.004Z,24.30
2022-08-26T13:29:32.114Z,24.30
2022-08-26T13:32:00.822Z,24.20
2022-08-26T13:34:32.417Z,24.20
2022-08-26T13:37:00.979Z,24.20
2022-08-26T13:39:29.529Z,24.30
2022-08-26T13:41:57.864Z,24.40
2022-08-26T13:44:26.023Z,24.40
2022-08-26T13:46:54.386Z,24.30
2022-08-26T13:49:22.553Z,24.30
2022-08-26T13:51:52.043Z,24.30
2022-08-26T13:54:42.126Z,24.30
2022-08-26T13:57:10.234Z,24.30
2022-08-26T13:59:38.372Z,24.30
2022-08-26T14:02:09.110Z,24.30
2022-08-26T14:04:38.180Z,24.20
2022-08-26T14:07:08.399Z,24.30
2022-08-26T14:09:38.500Z,24.30
2022-08-26T14:12:07.160Z,24.20
2022-08-26T14:14:35.485Z,24.20
2022-08-26T14:17:03.925Z,24.20
2022-08-26T14:19:32.478Z,24.20
2022-08-26T14:22:01.753Z,24.20
2022-08-26T14:24:31.339Z,24.10
2022-08-26T14:26:59.662Z,24.10
2022-08-26T14:29:27.793Z,24.10
2022-08-26T14:31:58.641Z,24.20
2022-08-26T14:34:27.555Z,24.10
2022-08-26T14:36:55.634Z,24.20
2022-08-26T14:39:23.779Z,24.30
2022-08-26T14:41:56.979Z,24.30
2022-08-26T14:44:28.880Z,24.20
2022-08-26T14:46:57.511Z,24.30
2022-08-26T14:49:27.244Z,24.20
2022-08-26T14:51:56.362Z,24.00
2022-08-26T14:54:24.649Z,24.00
2022-08-26T14:56:56.654Z,23.90
2022-08-26T14:59:27.087Z,23.80
2022-08-26T15:01:56.404Z,23.70
2022-08-26T15:04:25.814Z,23.80
2022-08-26T15:06:55.336Z,24.30
2022-08-26T15:09:25.061Z,24.60
2022-08-26T15:11:55.018Z,24.70
2022-08-26T15:14:23.894Z,24.60
2022-08-26T15:16:55.819Z,24.60
2022-08-26T15:19:26.252Z,24.50
2022-08-26T15:21:54.491Z,24.60
2022-08-26T15:24:25.386Z,24.90
2022-08-26T15:26:55.307Z,25.40
2022-08-26T15:29:23.819Z,25.60
2022-08-26T15:31:52.162Z,25.70
2022-08-26T15:34:24.248Z,25.50
2022-08-26T15:36:52.462Z,25.30
2022-08-26T15:39:20.835Z,25.00
2022-08-26T15:41:48.945Z,24.80
2022-08-26T15:44:19.180Z,24.70
2022-08-26T15:46:49.554Z,24.60
2022-08-26T15:49:19.466Z,24.40
2022-08-26T15:51:50.372Z,24.30
2022-08-26T15:54:22.015Z,24.20
2022-08-26T15:56:52.218Z,24.20
2022-08-26T15:59:32.139Z,24.10
2022-08-26T16:02:01.569Z,24.20
2022-08-26T16:04:29.965Z,24.10
2022-08-26T16:06:58.083Z,24.10
2022-08-26T16:09:27.156Z,24.10
2022-08-26T16:11:55.848Z,24.10
2022-08-26T16:14:26.214Z,24.10
2022-08-26T16:16:54.787Z,24.10
2022-08-26T16:19:23.197Z,24.10
2022-08-26T16:21:51.752Z,24.20
2022-08-26T16:24:24.888Z,24.10
2022-08-26T16:26:55.809Z,24.20
2022-08-26T16:29:25.541Z,24.10
2022-08-26T16:31:54.810Z,24.10
2022-08-26T16:34:23.492Z,24.10
2022-08-26T16:36:52.968Z,24.00
2022-08-26T16:39:21.125Z,24.00
2022-08-26T16:41:49.294Z,24.00
2022-08-26T16:44:17.619Z,23.90
2022-08-26T16:46:47.113Z,23.90
2022-08-26T16:49:15.455Z,23.90
2022-08-26T16:51:43.561Z,23.90
2022-08-26T16:54:11.678Z,23.90
2022-08-26T16:56:40.534Z,23.80
2022-08-26T16:59:11.360Z,23.80
2022-08-26T17:01:39.548Z,23.70
2022-08-26T17:04:09.167Z,23.60
2022-08-26T17:06:38.154Z,23.70
2022-08-26T17:09:06.554Z,23.60
2022-08-26T17:11:35.284Z,23.60
2022-08-26T17:14:03.490Z,23.60
2022-08-26T17:16:31.740Z,23.60
2022-08-26T17:19:01.253Z,23.60
2022-08-26T17:21:30.700Z,23.60
2022-08-26T17:23:59.335Z,23.50
2022-08-26T17:26:27.976Z,23.40
2022-08-26T17:28:56.076Z,23.40
2022-08-26T17:31:24.924Z,23.40
2022-08-26T17:33:54.318Z,23.30
2022-08-26T17:36:28.031Z,23.30
2022-08-26T17:38:59.193Z,23.20
2022-08-26T17:41:28.084Z,23.20
2022-08-26T17:43:57.060Z,23.10
2022-08-26T17:46:25.766Z,23.10
2022-08-26T17:48:54.124Z,23.10
2022-08-26T17:51:23.476Z,23.10
2022-08-26T17:53:52.516Z,23.10
2022-08-26T17:56:25.423Z,23.10
2022-08-26T17:58:54.397Z,23.10
2022-08-26T18:01:23.511Z,23.10
2022-08-26T18:03:51.664Z,23.10
2022-08-26T18:06:20.636Z,23.10
2022-08-26T18:08:48.967Z,23.10
2022-08-26T18:11:19.225Z,23.10
2022-08-26T18:13:48.883Z,23.10
2022-08-26T18:16:18.676Z,23.10
2022-08-26T18:18:47.772Z,23.10
2022-08-26T18:21:18.079Z,23.10
2022-08-26T18:23:47.181Z,23.10
2022-08-26T18:26:20.338Z,23.10
2022-08-26T18:28:49.809Z,23.10
2022-08-26T18:31:18.350Z,23.10
2022-08-26T18:33:47.064Z,23.10
2022-08-26T18:36:20.370Z,23.10
2022-08-26T18:38:53.023Z,23.10
2022-08-26T18:41:22.786Z,23.10
2022-08-26T18:43:54.052Z,23.00
2022-08-26T18:46:24.935Z,23.00
2022-08-26T18:48:53.778Z,22.90
2022-08-26T18:51:24.620Z,22.90
2022-08-26T18:53:53.479Z,22.90
2022-08-26T18:56:21.556Z,22.90
2022-08-26T18:58:49.916Z,22.90
2022-08-26T19:01:25.443Z,22.90
2022-08-26T19:03:55.474Z,22.90
2022-08-26T19:06:25.103Z,22.90
2022-08-26T19:08:53.697Z,22.90
2022-08-26T19:11:31.727Z,22.90
2022-08-26T19:14:01.606Z,22.90
2022-08-26T19:16:31.800Z,22.90
2022-08-26T19:19:01.366Z,22.90
2022-08-26T19:21:31.008Z,22.90
2022-08-26T19:24:07.136Z,22.80
2022-08-26T19:26:35.459Z,22.90
2022-08-26T19:29:03.661Z,22.80
2022-08-26T19:31:33.456Z,22.80
2022-08-26T19:34:01.743Z,22.70
2022-08-26T19:36:30.955Z,22.70
2022-08-26T19:39:00.156Z,22.70
2022-08-26T19:41:36.612Z,22.70
2022-08-26T19:44:08.353Z,22.70
2022-08-26T19:49:11.194Z,22.70
2022-08-26T19:51:39.313Z,22.70
2022-08-26T19:54:07.514Z,22.60
2022-08-26T19:56:36.517Z,22.60
2022-08-26T19:59:04.774Z,22.60
2022-08-26T20:01:32.947Z,22.60
2022-08-26T20:04:02.753Z,22.60
2022-08-26T20:06:31.021Z,22.60
2022-08-26T20:08:59.182Z,22.60
2022-08-26T20:11:27.745Z,22.60
2022-08-26T20:13:55.892Z,22.60
2022-08-26T20:16:24.181Z,22.60
2022-08-26T20:19:09.851Z,22.50
2022-08-26T20:21:41.702Z,22.50
2022-08-26T20:24:13.812Z,22.50
2022-08-26T20:26:43.821Z,22.50
2022-08-26T20:29:14.258Z,22.40
2022-08-26T20:31:44.058Z,22.40
2022-08-26T20:34:13.189Z,22.40
2022-08-26T20:36:43.435Z,22.40
2022-08-26T20:39:11.885Z,22.30
2022-08-26T20:41:40.745Z,22.30
2022-08-26T20:44:09.347Z,22.50
2022-08-26T20:46:38.676Z,22.50
2022-08-26T20:49:07.578Z,22.60
2022-08-26T20:51:37.422Z,22.50
2022-08-26T20:54:08.178Z,22.40
2022-08-26T20:56:36.709Z,22.40
2022-08-26T20:59:06.775Z,22.30
2022-08-26T21:01:36.670Z,22.30
2022-08-26T21:04:10.526Z,22.30
2022-08-26T21:06:39.264Z,22.50
2022-08-26T21:09:13.754Z,22.40
2022-08-26T21:11:44.566Z,22.40
2022-08-26T21:14:16.928Z,22.40
2022-08-26T21:16:46.515Z,22.30
2022-08-26T21:19:17.561Z,22.40
2022-08-26T21:21:46.767Z,22.40
2022-08-26T21:24:18.059Z,22.30
2022-08-26T21:26:46.779Z,22.30
2022-08-26T21:29:15.495Z,22.20
2022-08-26T21:31:46.447Z,22.20
2022-08-26T21:34:15.794Z,22.10
2022-08-26T21:36:43.945Z,22.10
2022-08-26T21:39:13.060Z,22.10
2022-08-26T21:41:43.747Z,22.00
2022-08-26T21:44:13.470Z,22.00
2022-08-26T21:46:42.293Z,22.10
2022-08-26T21:49:13.247Z,22.00
2022-08-26T21:51:43.957Z,21.90
2022-08-26T21:54:13.309Z,21.80
2022-08-26T21:56:46.534Z,21.70
2022-08-26T21:59:16.267Z,21.60
2022-08-26T22:01:44.620Z,21.70
2022-08-26T22:04:12.848Z,21.70
2022-08-26T22:06:43.864Z,21.70
2022-08-26T22:09:13.125Z,21.60
2022-08-26T22:11:43.553Z,21.70
2022-08-26T22:14:12.276Z,21.70
2022-08-26T22:16:40.416Z,21.60
2022-08-26T22:19:12.330Z,21.60
2022-08-26T22:21:45.500Z,21.60
2022-08-26T22:24:13.612Z,21.50
2022-08-26T22:26:43.534Z,21.40
2022-08-26T22:29:11.692Z,21.30
2022-08-26T22:31:40.212Z,21.30
2022-08-26T22:34:09.997Z,21.20
2022-08-26T22:36:43.688Z,21.20
2022-08-26T22:39:13.646Z,21.20
2022-08-26T22:41:43.388Z,21.10
2022-08-26T22:44:12.637Z,21.10
2022-08-26T22:46:42.320Z,21.10
2022-08-26T22:49:12.496Z,21.10
2022-08-26T22:51:40.666Z,21.10
2022-08-26T22:54:08.762Z,21.10
2022-08-26T22:56:37.960Z,21.00
2022-08-26T22:59:08.704Z,21.00
2022-08-26T23:01:39.239Z,20.90
2022-08-26T23:04:08.264Z,21.00
2022-08-26T23:06:37.589Z,21.00
2022-08-26T23:09:06.513Z,20.90
2022-08-26T23:11:35.422Z,20.80
2022-08-26T23:14:06.579Z,20.70
2022-08-26T23:16:39.553Z,20.70
2022-08-26T23:19:08.531Z,20.70
2022-08-26T23:21:36.760Z,20.60
2022-08-26T23:24:05.920Z,20.70
2022-08-26T23:26:34.381Z,20.70
2022-08-26T23:29:02.902Z,20.60
2022-08-26T23:31:31.341Z,20.60
2022-08-26T23:34:18.511Z,20.60
2022-08-26T23:36:47.002Z,20.60
2022-08-26T23:39:15.375Z,20.50
2022-08-26T23:41:43.594Z,20.40
2022-08-26T23:44:12.286Z,20.30
2022-08-26T23:46:40.360Z,20.30
2022-08-26T23:49:10.102Z,20.30
2022-08-26T23:51:57.107Z,20.30
2022-08-26T23:54:25.235Z,20.20
2022-08-26T23:56:53.327Z,20.20
2022-08-26T23:59:21.438Z,20.20
